This is the latest recevied weather packets stored in our database for station/object DJ0JJ-11. If no packets are shown the sender has not sent any weather packets the latest 10 day(s).
| Time | Temp. | Humidity | Pressure | Rain* | Wind** | Luminosity | Snow |
|---|---|---|---|---|---|---|---|
| 1787586627 | 21.67° C | 59% | 1016.7 hPa | - | - | - | - |
| 1787585727 | 21.67° C | 58% | 1016.7 hPa | - | - | - | - |
| 1787584826 | 21.67° C | 57% | 1016.8 hPa | - | - | - | - |
| 1787583926 | 21.11° C | 60% | 1017 hPa | - | - | - | - |
| 1787583026 | 21.11° C | 62% | 1017.4 hPa | - | - | - | - |
| 1787582126 | 21.67° C | 60% | 1017.7 hPa | - | - | - | - |
| 1787581225 | 22.22° C | 56% | 1018 hPa | - | - | - | - |
| 1787580325 | 23.33° C | 48% | 1018.4 hPa | - | - | - | - |
| 1787579428 | 23.89° C | 48% | 1017.8 hPa | - | - | - | - |
| 1787578528 | 23.89° C | 47% | 1017.8 hPa | - | - | - | - |
| 1787577628 | 23.89° C | 47% | 1017.8 hPa | - | - | - | - |
| 1787576728 | 23.89° C | 47% | 1017.9 hPa | - | - | - | - |
| 1787575828 | 23.89° C | 47% | 1018.4 hPa | - | - | - | - |
| 1787574928 | 23.89° C | 47% | 1018.6 hPa | - | - | - | - |
| 1787574028 | 23.33° C | 49% | 1018.4 hPa | - | - | - | - |
| 1787573127 | 22.78° C | 51% | 1018.6 hPa | - | - | - | - |
| 1787572227 | 22.78° C | 51% | 1018.8 hPa | - | - | - | - |
| 1787571327 | 22.22° C | 50% | 1019.1 hPa | - | - | - | - |
| 1787570427 | 22.22° C | 51% | 1019.3 hPa | - | - | - | - |
| 1787569527 | 22.22° C | 50% | 1019.4 hPa | - | - | - | - |
| 1787568627 | 22.22° C | 50% | 1019.5 hPa | - | - | - | - |
| 1787567727 | 21.67° C | 50% | 1020 hPa | - | - | - | - |
| 1787566827 | 21.67° C | 51% | 1020.1 hPa | - | - | - | - |
| 1787565927 | 21.11° C | 52% | 1020.4 hPa | - | - | - | - |
| 1787565027 | 20.56° C | 53% | 1020.6 hPa | - | - | - | - |
* Rain since midnight (hover to see other rain measurements)
** Current wind speed in m/s (hover to see current wind gust speed)